• Join FlightAware (Why Join?)
  • Login
  • US Flag 
06:15AM EDT


 

Airport Tracker/Info


-or-


 

Live Flight TrackerFlight Track Log ✈ N960DL ✈ 11-Jun-2013 ✈ KCHS - KATL

Flight Track Log - Related Links

Times and Time Zones

All times are in EDT time to prevent confusion due to time zone crossing. See the N960DL flight status page for this flight to view local times or setup timezone preferences in your user account.

Time Position Orientation Groundspeed Altitude Reporting Facility
EDT Latitude Longitude Course Direction KTS MPH feet Rate Location/Type
08:59AM 32.8725 -80.1967 257° West 243 280 5,600  Level Jacksonville Center
09:00AM 32.9333 -80.5022 270° West  Level FlightAware Approximate
09:00AM 32.8886 -80.2678 285° West 249 287 8,200  Level Jacksonville Center
09:01AM 32.9435 -80.6280 276° West  Level FlightAware Approximate
09:01AM 32.9031 -80.3542 281° West 261 300 10,700  Level Jacksonville Center
09:02AM 32.9549 -80.7537 276° West  Level FlightAware Approximate
09:02AM 32.8906 -80.4633 262° West 288 331 11,900  Level Jacksonville Center
09:03AM 32.9663 -80.8795 276° West  Level FlightAware Approximate
09:03AM 32.8742 -80.5850 261° West 339 390 14,200  Level Jacksonville Center
09:04AM 32.9429 -81.0026 257° West  Level FlightAware Approximate
09:04AM 32.8575 -80.7114 261° West 378 435 16,700  Level Jacksonville Center
09:05AM 32.8389 -80.8453 261° West 401 461 18,900 2,100 Climbing Jacksonville Center
09:06AM 32.8222 -80.9792 262° West 413 475 21,000 1,500 Climbing Jacksonville Center
09:07AM 32.8053 -81.1156 262° West 418 481 22,000 480 Climbing Jacksonville Center
09:08AM 32.7864 -81.2519 261° West 423 487 22,000  Level Jacksonville Center
09:09AM 32.7672 -81.3906 261° West 429 494 22,000  Level Jacksonville Center
09:11AM 32.7203 -81.7131 260° West 415 478 22,000  Level Atlanta Center
09:12AM 32.7019 -81.8494 261° West 415 478 22,000  Level Atlanta Center
09:13AM 32.6814 -81.9856 260° West 420 483 22,000  Level Atlanta Center
09:14AM 32.6939 -82.1233 276° West 420 483 22,000  Level Atlanta Center
09:15AM 32.7375 -82.2508 292° West 415 478 22,000  Level Atlanta Center
09:16AM 32.7833 -82.3786 293° West 415 478 22,000  Level Atlanta Center
09:17AM 32.8289 -82.5111 292° West 421 484 22,000  Level Atlanta Center
09:18AM 32.8742 -82.6364 293° West 427 491 22,000  Level Atlanta Center
09:19AM 32.9194 -82.7669 292° West 427 491 22,000 -480 Level Atlanta Center
09:20AM 32.9667 -82.8975 293° West 432 497 21,100 -1,200 Descending Atlanta Center
09:21AM 33.0094 -83.0256 292° West 427 491 19,700 -1,680 Descending Atlanta Center
09:22AM 33.0522 -83.1517 292° West 421 484 17,800 -2,400 Descending Atlanta Center
09:23AM 33.0947 -83.2925 290° West 414 476 14,900 -2,700 Descending Atlanta Center
09:24AM 33.1350 -83.4039 293° West 386 444 12,400 -1,500 Descending Atlanta Center
09:25AM 33.1733 -83.5178 292° West 374 430 12,000 -240 Descending Atlanta Center
09:26AM 33.2111 -83.6292 292° West 364 419 12,000  Level Atlanta Center
09:27AM 33.2333 -83.7000 291° West 327 376 12,000 -180 Level Atlanta TRACON
09:28AM 33.2667 -83.7833 296° West 297 342 11,800 -840 Descending Atlanta TRACON
09:29AM 33.3000 -83.8667 296° West 285 328 10,500 -1,260 Descending Atlanta TRACON
09:29AM 33.2994 -83.8972 269° West 289 333 10,100 -1,440 Descending Atlanta Center
09:30AM 33.3289 -83.9767 294° West 278 320 8,400 -1,200 Descending Atlanta Center
09:31AM 33.3767 -84.0414 311° West 268 308 7,700 -1,200 Descending Atlanta Center
09:32AM 33.4353 -84.0986 321° Northwest 261 300 6,100 -1,500 Descending Atlanta Center
09:33AM 33.4936 -84.1558 321° Northwest 261 300 4,700 -1,500 Descending Atlanta Center
09:34AM 33.5458 -84.2058 321° Northwest 247 284 3,100 -900 Descending Atlanta Center
09:35AM 33.5958 -84.2533 322° Northwest 241 277 2,900 -240 Descending Atlanta Center